Time,TemperatureF,DewpointF,PressureIn,WindDirection,WindDirectionDegrees,WindSpeedMPH,WindSpeedGustMPH,Humidity,HourlyPrecipIn,Conditions,Clouds,dailyrainin,SolarRadiationWatts/m^2,SoftwareType,DateUTC
2013-02-26 00:06:00,32.6,26.0,30.21,NW,314,0.0,0.0,78,0.00,,,0.00,0,weatherlink.com 1.10,2013-02-26 05:06:00,
2013-02-26 00:21:00,32.0,26.0,30.21,NW,314,0.0,0.0,78,0.00,,,0.00,0,weatherlink.com 1.10,2013-02-26 05:21:00,
2013-02-26 00:36:00,31.4,26.0,30.20,NW,314,0.0,0.0,79,0.00,,,0.00,0,weatherlink.com 1.10,2013-02-26 05:36:00,
2013-02-26 00:51:00,30.8,25.0,30.20,NW,314,0.0,0.0,79,0.00,,,0.00,0,weatherlink.com 1.10,2013-02-26 05:51:00,
2013-02-26 01:06:00,30.2,25.0,30.20,NW,314,0.0,0.0,81,0.00,,,0.00,0,weatherlink.com 1.10,2013-02-26 06:06:00,
2013-02-26 01:21:00,29.7,25.0,30.20,NW,314,0.0,0.0,82,0.00,,,0.00,0,weatherlink.com 1.10,2013-02-26 06:21:00,
2013-02-26 01:36:00,29.2,25.0,30.21,NW,314,0.0,0.0,83,0.00,,,0.00,0,weatherlink.com 1.10,2013-02-26 06:36:00,
2013-02-26 01:51:00,28.8,24.0,30.23,NW,314,0.0,0.0,83,0.00,,,0.00,0,weatherlink.com 1.10,2013-02-26 06:51:00,
2013-02-26 02:06:00,28.4,24.0,30.24,NW,314,0.0,0.0,84,0.00,,,0.00,0,weatherlink.com 1.10,2013-02-26 07:06:00,
2013-02-26 02:21:00,28.0,24.0,30.24,NW,314,0.0,0.0,84,0.00,,,0.00,0,weatherlink.com 1.10,2013-02-26 07:21:00,
2013-02-26 02:36:00,27.7,24.0,30.24,NW,314,0.0,0.0,85,0.00,,,0.00,0,weatherlink.com 1.10,2013-02-26 07:36:00,
2013-02-26 02:51:00,27.4,24.0,30.25,NW,314,0.0,0.0,85,0.00,,,0.00,0,weatherlink.com 1.10,2013-02-26 07:51:00,
2013-02-26 03:06:00,27.1,24.0,30.25,NW,314,0.0,0.0,86,0.00,,,0.00,0,weatherlink.com 1.10,2013-02-26 08:06:00,
2013-02-26 03:21:00,26.8,23.0,30.23,NW,314,0.0,0.0,86,0.00,,,0.00,0,weatherlink.com 1.10,2013-02-26 08:21:00,
2013-02-26 03:36:00,26.5,23.0,30.24,NW,314,0.0,0.0,86,0.00,,,0.00,0,weatherlink.com 1.10,2013-02-26 08:36:00,
2013-02-26 03:51:00,26.4,23.0,30.23,NW,314,0.0,0.0,86,0.00,,,0.00,0,weatherlink.com 1.10,2013-02-26 08:51:00,
2013-02-26 04:06:00,26.3,23.0,30.24,NW,314,0.0,0.0,87,0.00,,,0.00,0,weatherlink.com 1.10,2013-02-26 09:06:00,
2013-02-26 04:21:00,26.1,23.0,30.24,NW,314,0.0,0.0,87,0.00,,,0.00,0,weatherlink.com 1.10,2013-02-26 09:21:00,
2013-02-26 04:36:00,25.8,23.0,30.23,NW,314,0.0,1.0,87,0.00,,,0.00,0,weatherlink.com 1.10,2013-02-26 09:36:00,
2013-02-26 04:51:00,25.6,23.0,30.25,NW,314,0.0,0.0,88,0.00,,,0.00,0,weatherlink.com 1.10,2013-02-26 09:51:00,
2013-02-26 05:06:00,25.5,23.0,30.25,NW,314,0.0,1.0,88,0.00,,,0.00,0,weatherlink.com 1.10,2013-02-26 10:06:00,
2013-02-26 05:21:00,25.3,23.0,30.26,NW,314,0.0,0.0,89,0.00,,,0.00,0,weatherlink.com 1.10,2013-02-26 10:21:00,
2013-02-26 05:36:00,25.1,22.0,30.26,NW,314,0.0,0.0,89,0.00,,,0.00,0,weatherlink.com 1.10,2013-02-26 10:36:00,
2013-02-26 05:51:00,25.0,22.0,30.26,NW,314,0.0,0.0,89,0.00,,,0.00,0,weatherlink.com 1.10,2013-02-26 10:51:00,
2013-02-26 06:06:00,24.8,22.0,30.26,NW,314,0.0,0.0,89,0.00,,,0.00,0,weatherlink.com 1.10,2013-02-26 11:06:00,
2013-02-26 06:21:00,24.7,22.0,30.26,NW,314,0.0,0.0,89,0.00,,,0.00,0,weatherlink.com 1.10,2013-02-26 11:21:00,
2013-02-26 06:36:00,24.5,22.0,30.26,NW,314,0.0,0.0,89,0.00,,,0.00,0,weatherlink.com 1.10,2013-02-26 11:36:00,
2013-02-26 06:51:00,24.5,22.0,30.27,NW,314,0.0,0.0,89,0.00,,,0.00,7,weatherlink.com 1.10,2013-02-26 11:51:00,
2013-02-26 07:06:00,24.6,22.0,30.27,NW,314,0.0,0.0,90,0.00,,,0.00,23,weatherlink.com 1.10,2013-02-26 12:06:00,
2013-02-26 07:21:00,24.8,22.0,30.27,NW,314,0.0,0.0,90,0.00,,,0.00,23,weatherlink.com 1.10,2013-02-26 12:21:00,
2013-02-26 07:36:00,25.3,23.0,30.26,NW,314,0.0,0.0,91,0.00,,,0.00,21,weatherlink.com 1.10,2013-02-26 12:36:00,
2013-02-26 07:51:00,25.6,23.0,30.27,NW,314,0.0,1.0,91,0.00,,,0.00,26,weatherlink.com 1.10,2013-02-26 12:51:00,
2013-02-26 08:06:00,26.2,24.0,30.28,NW,314,0.0,1.0,91,0.00,,,0.00,30,weatherlink.com 1.10,2013-02-26 13:06:00,
2013-02-26 08:21:00,27.0,25.0,30.28,NW,314,0.0,0.0,92,0.00,,,0.00,35,weatherlink.com 1.10,2013-02-26 13:21:00,
2013-02-26 08:37:00,27.7,26.0,30.28,NW,314,0.0,1.0,92,0.00,,,0.00,40,weatherlink.com 1.10,2013-02-26 13:37:00,
2013-02-26 08:52:00,28.7,27.0,30.27,NW,314,0.0,0.0,92,0.00,,,0.00,47,weatherlink.com 1.10,2013-02-26 13:52:00,
2013-02-26 09:07:00,29.6,28.0,30.27,NW,314,0.0,0.0,92,0.00,,,0.00,77,weatherlink.com 1.10,2013-02-26 14:07:00,
2013-02-26 09:22:00,32.2,29.0,30.27,NW,314,0.0,0.0,89,0.00,,,0.00,132,weatherlink.com 1.10,2013-02-26 14:22:00,
2013-02-26 09:37:00,33.8,29.0,30.27,NW,314,0.0,2.0,82,0.00,,,0.00,165,weatherlink.com 1.10,2013-02-26 14:37:00,
2013-02-26 09:52:00,34.6,29.0,30.28,NW,314,0.0,0.0,79,0.00,,,0.00,153,weatherlink.com 1.10,2013-02-26 14:52:00,
2013-02-26 10:07:00,35.8,30.0,30.27,NW,314,1.0,1.0,78,0.00,,,0.00,294,weatherlink.com 1.10,2013-02-26 15:07:00,
2013-02-26 10:22:00,37.6,30.0,30.27,NW,314,1.0,2.0,75,0.00,,,0.00,478,weatherlink.com 1.10,2013-02-26 15:22:00,
2013-02-26 10:37:00,38.2,29.0,30.27,West,274,0.0,4.0,70,0.00,,,0.00,427,weatherlink.com 1.10,2013-02-26 15:37:00,
2013-02-26 10:52:00,40.3,30.0,30.26,South,172,2.0,5.0,68,0.00,,,0.00,631,weatherlink.com 1.10,2013-02-26 15:52:00,
2013-02-26 11:07:00,41.5,30.0,30.25,SSW,193,1.0,3.0,63,0.00,,,0.00,615,weatherlink.com 1.10,2013-02-26 16:07:00,
2013-02-26 11:37:00,42.4,28.0,30.25,NNW,332,1.0,3.0,58,0.00,,,0.00,360,weatherlink.com 1.10,2013-02-26 16:37:00,
2013-02-26 11:52:00,42.9,29.0,30.24,NNW,331,1.0,2.0,59,0.00,,,0.00,257,weatherlink.com 1.10,2013-02-26 16:52:00,
2013-02-26 12:07:00,43.5,28.0,30.24,South,178,1.0,4.0,55,0.00,,,0.00,591,weatherlink.com 1.10,2013-02-26 17:07:00,
2013-02-26 12:22:00,43.4,28.0,30.23,NNW,336,3.0,6.0,56,0.00,,,0.00,543,weatherlink.com 1.10,2013-02-26 17:22:00,
2013-02-26 12:37:00,43.1,29.0,30.23,WNW,293,1.0,4.0,58,0.00,,,0.00,197,weatherlink.com 1.10,2013-02-26 17:37:00,
2013-02-26 12:52:00,43.5,27.0,30.22,WNW,294,2.0,3.0,53,0.00,,,0.00,436,weatherlink.com 1.10,2013-02-26 17:52:00,
2013-02-26 13:07:00,45.4,29.0,30.21,NNW,327,3.0,4.0,52,0.00,,,0.00,497,weatherlink.com 1.10,2013-02-26 18:07:00,
2013-02-26 13:22:00,45.3,27.0,30.20,WNW,292,0.0,5.0,50,0.00,,,0.00,510,weatherlink.com 1.10,2013-02-26 18:22:00,
2013-02-26 13:37:00,45.4,28.0,30.19,WNW,296,0.0,4.0,51,0.00,,,0.00,461,weatherlink.com 1.10,2013-02-26 18:37:00,
2013-02-26 13:52:00,45.4,28.0,30.19,WSW,254,1.0,5.0,51,0.00,,,0.00,362,weatherlink.com 1.10,2013-02-26 18:52:00,
2013-02-26 14:07:00,45.2,27.0,30.17,SE,135,0.0,5.0,50,0.00,,,0.00,408,weatherlink.com 1.10,2013-02-26 19:07:00,
2013-02-26 14:22:00,45.8,28.0,30.17,North,351,0.0,3.0,51,0.00,,,0.00,355,weatherlink.com 1.10,2013-02-26 19:22:00,
2013-02-26 14:37:00,45.6,28.0,30.17,North,351,2.0,2.0,51,0.00,,,0.00,197,weatherlink.com 1.10,2013-02-26 19:37:00,
2013-02-26 14:53:00,44.7,28.0,30.16,North,351,1.0,2.0,53,0.00,,,0.00,183,weatherlink.com 1.10,2013-02-26 19:53:00,
2013-02-26 15:08:00,44.5,27.0,30.16,North,351,0.0,2.0,51,0.00,,,0.00,148,weatherlink.com 1.10,2013-02-26 20:08:00,
2013-02-26 15:23:00,43.5,27.0,30.17,North,351,0.0,1.0,52,0.00,,,0.00,144,weatherlink.com 1.10,2013-02-26 20:23:00,
2013-02-26 15:38:00,43.5,27.0,30.17,North,351,0.0,2.0,52,0.00,,,0.00,120,weatherlink.com 1.10,2013-02-26 20:38:00,
2013-02-26 15:53:00,43.1,27.0,30.16,North,351,0.0,1.0,53,0.00,,,0.00,88,weatherlink.com 1.10,2013-02-26 20:53:00,
2013-02-26 16:08:00,42.7,27.0,30.16,NNW,336,0.0,5.0,54,0.00,,,0.00,69,weatherlink.com 1.10,2013-02-26 21:08:00,
2013-02-26 16:23:00,42.2,27.0,30.16,WNW,283,2.0,5.0,55,0.00,,,0.00,51,weatherlink.com 1.10,2013-02-26 21:23:00,
2013-02-26 16:38:00,41.4,27.0,30.15,NW,308,1.0,3.0,56,0.00,,,0.00,42,weatherlink.com 1.10,2013-02-26 21:38:00,
2013-02-26 16:53:00,40.7,27.0,30.15,NW,308,0.0,1.0,58,0.00,,,0.00,23,weatherlink.com 1.10,2013-02-26 21:53:00,
2013-02-26 17:08:00,40.1,27.0,30.14,NW,308,0.0,1.0,59,0.00,,,0.00,14,weatherlink.com 1.10,2013-02-26 22:08:00,
2013-02-26 17:23:00,39.4,27.0,30.14,NW,308,0.0,1.0,61,0.00,,,0.00,5,weatherlink.com 1.10,2013-02-26 22:23:00,
2013-02-26 17:38:00,39.1,27.0,30.13,NW,308,0.0,3.0,62,0.00,,,0.00,0,weatherlink.com 1.10,2013-02-26 22:38:00,
2013-02-26 17:53:00,38.8,27.0,30.13,NW,308,0.0,0.0,63,0.00,,,0.00,0,weatherlink.com 1.10,2013-02-26 22:53:00,
2013-02-26 18:08:00,38.5,28.0,30.13,NW,308,0.0,1.0,65,0.00,,,0.00,0,weatherlink.com 1.10,2013-02-26 23:08:00,
2013-02-26 18:23:00,38.1,28.0,30.14,NW,308,0.0,1.0,66,0.00,,,0.00,0,weatherlink.com 1.10,2013-02-26 23:23:00,
2013-02-26 18:38:00,37.8,28.0,30.14,NW,308,0.0,1.0,67,0.00,,,0.00,0,weatherlink.com 1.10,2013-02-26 23:38:00,
2013-02-26 18:54:00,37.4,28.0,30.14,NW,308,0.0,1.0,68,0.00,,,0.00,0,weatherlink.com 1.10,2013-02-26 23:54:00,
2013-02-26 19:08:00,37.3,28.0,30.14,NW,308,0.0,0.0,68,0.00,,,0.00,0,weatherlink.com 1.10,2013-02-27 00:08:00,
2013-02-26 19:23:00,37.1,27.0,30.14,NW,308,0.0,0.0,68,0.00,,,0.00,0,weatherlink.com 1.10,2013-02-27 00:23:00,
2013-02-26 19:38:00,37.0,28.0,30.13,NW,308,0.0,1.0,69,0.00,,,0.00,0,weatherlink.com 1.10,2013-02-27 00:38:00,
2013-02-26 19:53:00,36.7,28.0,30.13,NW,308,0.0,1.0,70,0.00,,,0.00,0,weatherlink.com 1.10,2013-02-27 00:53:00,
2013-02-26 20:08:00,36.4,27.0,30.12,NW,308,2.0,3.0,70,0.00,,,0.00,0,weatherlink.com 1.10,2013-02-27 01:08:00,
2013-02-26 20:23:00,36.4,27.0,30.11,NW,308,0.0,1.0,70,0.00,,,0.00,0,weatherlink.com 1.10,2013-02-27 01:23:00,
2013-02-26 20:38:00,36.1,28.0,30.11,NW,308,0.0,1.0,71,0.00,,,0.00,0,weatherlink.com 1.10,2013-02-27 01:38:00,
2013-02-26 20:53:00,36.1,28.0,30.10,NW,308,0.0,0.0,71,0.00,,,0.00,0,weatherlink.com 1.10,2013-02-27 01:53:00,
2013-02-26 21:08:00,36.1,28.0,30.09,NW,308,0.0,0.0,71,0.00,,,0.00,0,weatherlink.com 1.10,2013-02-27 02:08:00,
2013-02-26 21:23:00,36.0,27.0,30.07,NW,308,0.0,0.0,71,0.00,,,0.00,0,weatherlink.com 1.10,2013-02-27 02:23:00,
2013-02-26 21:38:00,36.2,28.0,30.07,NW,308,0.0,0.0,71,0.00,,,0.00,0,weatherlink.com 1.10,2013-02-27 02:38:00,
2013-02-26 21:53:00,36.2,28.0,30.06,NW,308,0.0,0.0,71,0.00,,,0.00,0,weatherlink.com 1.10,2013-02-27 02:53:00,
2013-02-26 22:08:00,36.1,28.0,30.05,NW,308,0.0,0.0,72,0.00,,,0.00,0,weatherlink.com 1.10,2013-02-27 03:08:00,
2013-02-26 22:23:00,36.0,28.0,30.04,NW,308,0.0,1.0,72,0.00,,,0.00,0,weatherlink.com 1.10,2013-02-27 03:23:00,
2013-02-26 22:38:00,35.9,28.0,30.03,NW,308,0.0,0.0,72,0.00,,,0.00,0,weatherlink.com 1.10,2013-02-27 03:38:00,
2013-02-26 22:53:00,35.8,28.0,30.04,NW,308,0.0,0.0,72,0.00,,,0.00,0,weatherlink.com 1.10,2013-02-27 03:53:00,
2013-02-26 23:08:00,35.7,27.0,30.02,NW,308,1.0,1.0,72,0.00,,,0.00,0,weatherlink.com 1.10,2013-02-27 04:08:00,
2013-02-26 23:23:00,35.7,28.0,30.01,NW,308,0.0,2.0,73,0.00,,,0.00,0,weatherlink.com 1.10,2013-02-27 04:23:00,
2013-02-26 23:38:00,35.5,28.0,30.01,NW,308,0.0,1.0,75,0.00,,,0.00,0,weatherlink.com 1.10,2013-02-27 04:38:00,
2013-02-26 23:53:00,35.1,28.0,30.01,NW,308,0.0,3.0,76,0.00,,,0.00,0,weatherlink.com 1.10,2013-02-27 04:53:00,